Time,TemperatureF,DewpointF,PressureIn,WindDirection,WindDirectionDegrees,WindSpeedMPH,WindSpeedGustMPH,Humidity,HourlyPrecipIn,Conditions,Clouds,dailyrainin,SoftwareType,DateUTC
2013-06-07 00:05:00,70.5,58.2,29.65,North,0,4.9,4.9,65,0.00,,---,0.00,VWS V14.00,2013-06-07 05:05:00,
2013-06-07 00:10:00,70.5,58.2,29.65,North,0,6.0,6.0,65,0.00,,---,0.00,VWS V14.00,2013-06-07 05:10:00,
2013-06-07 00:17:00,70.5,58.2,29.65,North,0,8.6,8.6,65,0.00,,---,0.00,VWS V14.00,2013-06-07 05:17:00,
2013-06-07 00:22:00,70.5,57.8,29.65,North,0,5.8,5.8,64,0.00,,---,0.00,VWS V14.00,2013-06-07 05:22:00,
2013-06-07 00:28:00,70.5,57.8,29.65,NNE,22,8.0,8.0,64,0.00,,---,0.00,VWS V14.00,2013-06-07 05:28:00,
2013-06-07 00:33:00,70.5,57.8,29.65,North,0,6.0,6.0,64,0.00,,---,0.00,VWS V14.00,2013-06-07 05:33:00,
2013-06-07 00:39:00,70.3,57.2,29.65,ENE,68,7.2,7.8,63,0.00,,---,0.00,VWS V14.00,2013-06-07 05:39:00,
2013-06-07 00:44:00,70.3,57.2,29.65,NW,315,7.7,7.7,63,0.00,,---,0.00,VWS V14.00,2013-06-07 05:44:00,
2013-06-07 00:50:00,70.2,57.0,29.65,NNW,338,7.2,7.2,63,0.00,,---,0.00,VWS V14.00,2013-06-07 05:50:00,
2013-06-07 00:56:00,70.2,57.0,29.65,NNW,338,7.2,7.2,63,0.00,,---,0.00,VWS V14.00,2013-06-07 05:56:00,
2013-06-07 01:01:00,70.2,57.0,29.65,North,0,6.0,6.0,63,0.00,,---,0.00,VWS V14.00,2013-06-07 06:01:00,
2013-06-07 01:07:00,70.0,56.8,29.65,North,0,4.4,4.9,63,0.00,,---,0.00,VWS V14.00,2013-06-07 06:07:00,
2013-06-07 01:13:00,70.0,56.8,29.65,NE,45,8.0,8.0,63,0.00,,---,0.00,VWS V14.00,2013-06-07 06:13:00,
2013-06-07 01:18:00,70.0,56.8,29.65,NW,315,8.6,8.6,63,0.00,,---,0.00,VWS V14.00,2013-06-07 06:18:00,
2013-06-07 01:24:00,69.8,56.7,29.65,North,0,5.8,5.8,63,0.00,,---,0.00,VWS V14.00,2013-06-07 06:24:00,
2013-06-07 01:29:00,69.8,56.7,29.65,North,0,7.2,7.2,63,0.00,,---,0.00,VWS V14.00,2013-06-07 06:29:00,
2013-06-07 01:35:00,69.6,56.9,29.62,NNW,338,10.8,10.8,64,0.00,,---,0.00,VWS V14.00,2013-06-07 06:35:00,
2013-06-07 01:40:00,69.6,56.9,29.62,NNW,338,5.5,7.4,64,0.00,,---,0.00,VWS V14.00,2013-06-07 06:40:00,
2013-06-07 01:46:00,69.6,56.9,29.62,North,0,6.0,6.0,64,0.00,,---,0.00,VWS V14.00,2013-06-07 06:46:00,
2013-06-07 01:51:00,69.6,56.9,29.62,North,0,7.7,7.7,64,0.00,,---,0.00,VWS V14.00,2013-06-07 06:51:00,
2013-06-07 01:57:00,69.4,56.8,29.62,NNE,22,7.2,7.2,64,0.00,,---,0.00,VWS V14.00,2013-06-07 06:57:00,
2013-06-07 02:03:00,69.4,56.3,29.62,North,0,5.5,5.5,63,0.00,,---,0.00,VWS V14.00,2013-06-07 07:03:00,
2013-06-07 02:08:00,69.4,56.3,29.62,North,0,6.0,6.0,63,0.00,,---,0.00,VWS V14.00,2013-06-07 07:08:00,
2013-06-07 02:14:00,69.3,56.1,29.62,North,0,5.2,5.2,63,0.00,,---,0.00,VWS V14.00,2013-06-07 07:14:00,
2013-06-07 02:21:00,69.3,56.1,29.62,NNE,22,6.3,6.3,63,0.00,,---,0.00,VWS V14.00,2013-06-07 07:21:00,
2013-06-07 02:26:00,69.1,56.0,29.62,NW,315,4.4,4.4,63,0.00,,---,0.00,VWS V14.00,2013-06-07 07:26:00,
2013-06-07 02:31:00,69.1,56.0,29.62,North,0,4.4,4.4,63,0.00,,---,0.00,VWS V14.00,2013-06-07 07:31:00,
2013-06-07 02:36:00,69.1,56.0,29.62,NNE,22,6.3,6.3,63,0.00,,---,0.00,VWS V14.00,2013-06-07 07:36:00,
2013-06-07 02:42:00,69.1,55.5,29.62,North,0,6.3,6.3,62,0.00,,---,0.00,VWS V14.00,2013-06-07 07:42:00,
2013-06-07 02:48:00,69.1,55.5,29.62,North,0,6.3,6.3,62,0.00,,---,0.00,VWS V14.00,2013-06-07 07:48:00,
2013-06-07 02:53:00,69.1,55.5,29.62,NNW,338,5.2,5.2,62,0.00,,---,0.00,VWS V14.00,2013-06-07 07:53:00,
2013-06-07 02:59:00,69.1,55.5,29.62,NNE,22,6.3,6.3,62,0.00,,---,0.00,VWS V14.00,2013-06-07 07:59:00,
2013-06-07 03:04:00,68.9,55.4,29.62,NNW,338,4.1,4.1,62,0.00,,---,0.00,VWS V14.00,2013-06-07 08:04:00,
2013-06-07 03:10:00,68.9,55.4,29.62,NNE,22,5.8,5.8,62,0.00,,---,0.00,VWS V14.00,2013-06-07 08:10:00,
2013-06-07 03:17:00,68.9,55.4,29.62,NNW,338,5.8,5.8,62,0.00,,---,0.00,VWS V14.00,2013-06-07 08:17:00,
2013-06-07 03:22:00,68.9,55.4,29.62,NNW,338,5.8,5.8,62,0.00,,---,0.00,VWS V14.00,2013-06-07 08:22:00,
2013-06-07 03:27:00,68.9,55.4,29.62,NNW,338,5.8,5.8,62,0.00,,---,0.00,VWS V14.00,2013-06-07 08:27:00,
2013-06-07 03:32:00,68.7,55.2,29.62,NNW,338,6.3,6.3,62,0.00,,---,0.00,VWS V14.00,2013-06-07 08:32:00,
2013-06-07 03:38:00,68.7,55.2,29.62,North,0,5.2,5.2,62,0.00,,---,0.00,VWS V14.00,2013-06-07 08:38:00,
2013-06-07 03:43:00,68.7,54.7,29.62,NNW,338,5.8,5.8,61,0.00,,---,0.00,VWS V14.00,2013-06-07 08:43:00,
2013-06-07 03:48:00,68.7,54.7,29.62,North,0,7.2,7.2,61,0.00,,---,0.00,VWS V14.00,2013-06-07 08:48:00,
2013-06-07 03:54:00,68.7,54.7,29.62,NNW,338,6.3,6.5,61,0.00,,---,0.00,VWS V14.00,2013-06-07 08:54:00,
2013-06-07 03:59:00,68.7,54.3,29.62,North,0,7.2,7.2,60,0.00,,---,0.00,VWS V14.00,2013-06-07 08:59:00,
2013-06-07 04:05:00,68.7,54.3,29.62,North,0,5.8,6.3,60,0.00,,---,0.00,VWS V14.00,2013-06-07 09:05:00,
2013-06-07 04:10:00,68.7,54.3,29.62,North,0,8.0,8.0,60,0.00,,---,0.00,VWS V14.00,2013-06-07 09:10:00,
2013-06-07 04:16:00,68.7,53.8,29.62,North,0,8.3,8.3,59,0.00,,---,0.00,VWS V14.00,2013-06-07 09:16:00,
2013-06-07 04:22:00,68.7,53.8,29.62,North,0,7.7,7.7,59,0.00,,---,0.00,VWS V14.00,2013-06-07 09:22:00,
2013-06-07 04:27:00,68.7,53.4,29.62,North,0,8.3,8.3,58,0.00,,---,0.00,VWS V14.00,2013-06-07 09:27:00,
2013-06-07 04:33:00,68.7,52.9,29.62,North,0,7.2,7.2,57,0.00,,---,0.00,VWS V14.00,2013-06-07 09:33:00,
2013-06-07 04:38:00,68.7,53.4,29.62,NW,315,7.7,7.7,58,0.00,,---,0.00,VWS V14.00,2013-06-07 09:38:00,
2013-06-07 04:45:00,68.5,53.2,29.62,NNW,338,8.6,8.6,58,0.00,,---,0.00,VWS V14.00,2013-06-07 09:45:00,
2013-06-07 04:51:00,68.5,53.2,29.62,NNE,22,6.3,6.3,58,0.00,,---,0.00,VWS V14.00,2013-06-07 09:51:00,
2013-06-07 04:57:00,68.5,53.2,29.62,North,0,10.0,10.0,58,0.00,,---,0.00,VWS V14.00,2013-06-07 09:57:00,
2013-06-07 05:02:00,68.4,52.5,29.62,North,0,6.3,6.3,57,0.00,,---,0.00,VWS V14.00,2013-06-07 10:02:00,
2013-06-07 05:08:00,68.4,52.5,29.62,North,0,8.6,8.6,57,0.00,,---,0.00,VWS V14.00,2013-06-07 10:08:00,
2013-06-07 05:13:00,68.2,52.4,29.62,North,0,5.2,5.2,57,0.00,,---,0.00,VWS V14.00,2013-06-07 10:13:00,
2013-06-07 05:19:00,68.2,52.9,29.62,North,0,4.6,5.6,58,0.00,,---,0.00,VWS V14.00,2013-06-07 10:19:00,
2013-06-07 05:24:00,68.0,52.7,29.62,North,0,4.9,4.9,58,0.00,,---,0.00,VWS V14.00,2013-06-07 10:24:00,
2013-06-07 05:30:00,68.0,52.7,29.62,North,0,10.5,10.5,58,0.00,,---,0.00,VWS V14.00,2013-06-07 10:30:00,
2013-06-07 05:35:00,67.8,52.5,29.65,NNW,338,5.8,7.6,58,0.00,,---,0.00,VWS V14.00,2013-06-07 10:35:00,
2013-06-07 05:40:00,67.8,53.0,29.65,NNW,338,5.5,5.5,59,0.00,,---,0.00,VWS V14.00,2013-06-07 10:40:00,
2013-06-07 05:45:00,67.6,52.8,29.65,North,0,8.8,8.8,59,0.00,,---,0.00,VWS V14.00,2013-06-07 10:45:00,
2013-06-07 05:51:00,67.5,52.7,29.65,NW,315,4.6,5.4,59,0.00,,---,0.00,VWS V14.00,2013-06-07 10:51:00,
2013-06-07 05:57:00,67.3,52.9,29.65,North,0,8.6,8.6,60,0.00,,---,0.00,VWS V14.00,2013-06-07 10:57:00,
2013-06-07 06:02:00,67.3,52.9,29.65,NNE,22,8.3,8.3,60,0.00,,---,0.00,VWS V14.00,2013-06-07 11:02:00,
2013-06-07 06:07:00,67.1,52.8,29.65,North,0,5.8,5.8,60,0.00,,---,0.00,VWS V14.00,2013-06-07 11:07:00,
2013-06-07 06:12:00,67.1,53.2,29.65,North,0,6.0,6.0,61,0.00,,---,0.00,VWS V14.00,2013-06-07 11:12:00,
2013-06-07 06:18:00,67.1,53.2,29.65,North,0,4.4,4.4,61,0.00,,---,0.00,VWS V14.00,2013-06-07 11:18:00,
2013-06-07 06:23:00,67.1,53.2,29.65,North,0,4.6,4.7,61,0.00,,---,0.00,VWS V14.00,2013-06-07 11:23:00,
2013-06-07 06:30:00,67.1,53.2,29.65,NNW,338,5.2,5.2,61,0.00,,---,0.00,VWS V14.00,2013-06-07 11:30:00,
2013-06-07 06:35:00,66.9,53.5,29.65,NNW,338,6.0,6.0,62,0.00,,---,0.00,VWS V14.00,2013-06-07 11:35:00,
2013-06-07 06:40:00,67.1,53.7,29.65,North,0,8.8,8.8,62,0.00,,---,0.00,VWS V14.00,2013-06-07 11:40:00,
2013-06-07 06:46:00,67.1,53.7,29.65,North,0,4.9,4.9,62,0.00,,---,0.00,VWS V14.00,2013-06-07 11:46:00,
2013-06-07 06:51:00,67.1,53.7,29.65,NNW,338,6.0,6.0,62,0.00,,---,0.00,VWS V14.00,2013-06-07 11:51:00,
2013-06-07 06:56:00,67.1,53.7,29.65,North,0,7.7,7.7,62,0.00,,---,0.00,VWS V14.00,2013-06-07 11:56:00,
2013-06-07 07:02:00,67.3,53.8,29.65,NNW,338,8.8,8.8,62,0.00,,---,0.00,VWS V14.00,2013-06-07 12:02:00,
2013-06-07 07:07:00,67.6,53.7,29.65,NNE,22,6.3,6.5,61,0.00,,---,0.00,VWS V14.00,2013-06-07 12:07:00,
2013-06-07 07:12:00,67.8,53.9,29.65,NW,315,6.3,6.3,61,0.00,,---,0.00,VWS V14.00,2013-06-07 12:12:00,
2013-06-07 07:18:00,67.8,53.4,29.68,North,0,9.1,9.1,60,0.00,,---,0.00,VWS V14.00,2013-06-07 12:18:00,
2013-06-07 07:24:00,68.0,53.6,29.68,North,0,4.4,5.6,60,0.00,,---,0.00,VWS V14.00,2013-06-07 12:24:00,
2013-06-07 07:30:00,68.2,53.8,29.68,North,0,7.7,7.7,60,0.00,,---,0.00,VWS V14.00,2013-06-07 12:30:00,
2013-06-07 07:35:00,68.5,53.7,29.65,North,0,5.8,5.8,59,0.00,,---,0.00,VWS V14.00,2013-06-07 12:35:00,
2013-06-07 07:40:00,68.5,53.2,29.65,North,0,5.2,6.3,58,0.00,,---,0.00,VWS V14.00,2013-06-07 12:40:00,
2013-06-07 07:47:00,68.7,53.8,29.65,North,0,3.8,4.3,59,0.00,,---,0.00,VWS V14.00,2013-06-07 12:47:00,
2013-06-07 07:53:00,68.9,54.0,29.65,NNW,338,6.3,6.3,59,0.00,,---,0.00,VWS V14.00,2013-06-07 12:53:00,
2013-06-07 07:58:00,69.1,54.2,29.65,North,0,8.6,8.6,59,0.00,,---,0.00,VWS V14.00,2013-06-07 12:58:00,
2013-06-07 08:05:00,69.1,53.7,29.68,North,0,7.2,7.2,58,0.00,,---,0.00,VWS V14.00,2013-06-07 13:05:00,
2013-06-07 08:10:00,68.9,53.5,29.68,NNE,22,5.5,6.5,58,0.00,,---,0.00,VWS V14.00,2013-06-07 13:10:00,
2013-06-07 08:15:00,68.9,54.0,29.68,North,0,6.9,6.9,59,0.00,,---,0.00,VWS V14.00,2013-06-07 13:15:00,
2013-06-07 08:21:00,68.9,54.5,29.68,NNE,22,7.7,7.7,60,0.00,,---,0.00,VWS V14.00,2013-06-07 13:21:00,
2013-06-07 08:26:00,69.8,55.8,29.68,North,0,7.2,7.2,61,0.00,,---,0.00,VWS V14.00,2013-06-07 13:26:00,
2013-06-07 08:33:00,70.2,55.2,29.68,North,0,5.5,5.5,59,0.00,,---,0.00,VWS V14.00,2013-06-07 13:33:00,
2013-06-07 08:38:00,70.0,54.5,29.68,NNW,338,4.9,5.4,58,0.00,,---,0.00,VWS V14.00,2013-06-07 13:38:00,
2013-06-07 08:43:00,69.8,54.4,29.68,North,0,4.6,4.9,58,0.00,,---,0.00,VWS V14.00,2013-06-07 13:43:00,
2013-06-07 08:49:00,70.3,55.3,29.68,North,0,10.8,10.8,59,0.00,,---,0.00,VWS V14.00,2013-06-07 13:49:00,
2013-06-07 08:55:00,70.9,55.4,29.68,North,0,5.8,5.8,58,0.00,,---,0.00,VWS V14.00,2013-06-07 13:55:00,
2013-06-07 09:00:00,71.2,54.8,29.68,NNW,338,10.8,10.8,56,0.00,,---,0.00,VWS V14.00,2013-06-07 14:00:00,
2013-06-07 09:05:00,71.6,52.5,29.68,NNW,338,8.8,10.5,51,0.00,,---,0.00,VWS V14.00,2013-06-07 14:05:00,
2013-06-07 09:11:00,72.0,52.9,29.68,WSW,248,8.0,8.0,51,0.00,,---,0.00,VWS V14.00,2013-06-07 14:11:00,
2013-06-07 09:16:00,72.1,53.0,29.68,North,0,10.2,10.2,51,0.00,,---,0.00,VWS V14.00,2013-06-07 14:16:00,
2013-06-07 09:22:00,72.5,52.3,29.68,North,0,10.2,10.2,49,0.00,,---,0.00,VWS V14.00,2013-06-07 14:22:00,
2013-06-07 09:27:00,72.9,52.6,29.68,North,0,8.8,8.8,49,0.00,,---,0.00,VWS V14.00,2013-06-07 14:27:00,
2013-06-07 09:33:00,73.0,51.6,29.68,NNW,338,10.8,10.8,47,0.00,,---,0.00,VWS V14.00,2013-06-07 14:33:00,
2013-06-07 09:39:00,73.2,52.4,29.68,North,0,5.8,7.4,48,0.00,,---,0.00,VWS V14.00,2013-06-07 14:39:00,
2013-06-07 09:44:00,73.4,50.8,29.68,NNW,338,6.0,8.1,45,0.00,,---,0.00,VWS V14.00,2013-06-07 14:44:00,
2013-06-07 09:50:00,73.6,51.0,29.68,NNE,22,8.3,8.3,45,0.00,,---,0.00,VWS V14.00,2013-06-07 14:50:00,
2013-06-07 09:55:00,73.8,50.5,29.68,NNW,338,5.2,5.8,44,0.00,,---,0.00,VWS V14.00,2013-06-07 14:55:00,
2013-06-07 10:00:00,74.1,50.2,29.68,NW,315,9.1,9.1,43,0.00,,---,0.00,VWS V14.00,2013-06-07 15:00:00,
2013-06-07 10:05:00,74.1,50.2,29.68,NNW,338,8.3,8.3,43,0.00,,---,0.00,VWS V14.00,2013-06-07 15:05:00,
2013-06-07 10:11:00,74.1,50.8,29.68,NNW,338,10.2,10.2,44,0.00,,---,0.00,VWS V14.00,2013-06-07 15:11:00,
2013-06-07 10:16:00,74.7,51.3,29.68,NE,45,10.8,10.8,44,0.00,,---,0.00,VWS V14.00,2013-06-07 15:16:00,
2013-06-07 10:21:00,74.7,50.1,29.68,NNW,338,7.2,7.8,42,0.00,,---,0.00,VWS V14.00,2013-06-07 15:21:00,
2013-06-07 10:27:00,74.7,51.3,29.68,NNW,338,6.0,6.0,44,0.00,,---,0.00,VWS V14.00,2013-06-07 15:27:00,
2013-06-07 10:33:00,74.8,51.5,29.68,NNW,338,6.3,7.4,44,0.00,,---,0.00,VWS V14.00,2013-06-07 15:33:00,
2013-06-07 10:39:00,75.0,52.3,29.68,North,0,13.3,13.3,45,0.00,,---,0.00,VWS V14.00,2013-06-07 15:39:00,
2013-06-07 10:45:00,75.0,51.7,29.68,NNE,22,7.7,7.7,44,0.00,,---,0.00,VWS V14.00,2013-06-07 15:45:00,
2013-06-07 10:50:00,75.0,51.0,29.68,NNE,22,6.3,6.5,43,0.00,,---,0.00,VWS V14.00,2013-06-07 15:50:00,
2013-06-07 10:56:00,75.4,50.7,29.68,North,0,10.5,10.5,42,0.00,,---,0.00,VWS V14.00,2013-06-07 15:56:00,
2013-06-07 11:02:00,75.6,49.6,29.68,NNW,338,10.8,10.8,40,0.00,,---,0.00,VWS V14.00,2013-06-07 16:02:00,
2013-06-07 11:07:00,75.7,51.0,29.68,North,0,6.0,6.0,42,0.00,,---,0.00,VWS V14.00,2013-06-07 16:07:00,
2013-06-07 11:14:00,75.7,50.4,29.68,NW,315,4.1,5.6,41,0.00,,---,0.00,VWS V14.00,2013-06-07 16:14:00,
2013-06-07 11:19:00,75.9,50.5,29.68,NE,45,11.6,11.6,41,0.00,,---,0.00,VWS V14.00,2013-06-07 16:19:00,
2013-06-07 11:24:00,76.3,51.5,29.68,North,0,9.1,9.1,42,0.00,,---,0.00,VWS V14.00,2013-06-07 16:24:00,
2013-06-07 11:31:00,76.5,50.4,29.68,NW,315,7.2,8.7,40,0.00,,---,0.00,VWS V14.00,2013-06-07 16:31:00,
2013-06-07 11:36:00,76.5,51.0,29.68,NE,45,7.2,7.2,41,0.00,,---,0.00,VWS V14.00,2013-06-07 16:36:00,
2013-06-07 11:42:00,76.8,50.7,29.68,North,0,6.3,6.3,40,0.00,,---,0.00,VWS V14.00,2013-06-07 16:42:00,
2013-06-07 11:47:00,77.0,51.5,29.68,NNE,22,9.4,9.4,41,0.00,,---,0.00,VWS V14.00,2013-06-07 16:47:00,
2013-06-07 11:53:00,77.0,51.5,29.68,NW,315,6.3,6.3,41,0.00,,---,0.00,VWS V14.00,2013-06-07 16:53:00,
2013-06-07 11:58:00,77.0,51.5,29.68,NNW,338,8.3,8.7,41,0.00,,---,0.00,VWS V14.00,2013-06-07 16:58:00,
2013-06-07 12:04:00,77.0,51.5,29.68,NNW,338,9.1,9.1,41,0.00,,---,0.00,VWS V14.00,2013-06-07 17:04:00,
2013-06-07 12:10:00,77.4,51.2,29.68,North,0,7.7,7.7,40,0.00,,---,0.00,VWS V14.00,2013-06-07 17:10:00,
2013-06-07 12:15:00,77.2,50.3,29.68,NE,45,5.2,8.1,39,0.00,,---,0.00,VWS V14.00,2013-06-07 17:15:00,
2013-06-07 12:20:00,77.2,50.3,29.68,North,0,12.7,12.7,39,0.00,,---,0.00,VWS V14.00,2013-06-07 17:20:00,
2013-06-07 12:26:00,77.7,51.5,29.68,NNW,338,3.0,6.5,40,0.00,,---,0.00,VWS V14.00,2013-06-07 17:26:00,
2013-06-07 12:31:00,78.3,52.7,29.68,NNW,338,5.5,5.6,41,0.00,,---,0.00,VWS V14.00,2013-06-07 17:31:00,
2013-06-07 12:37:00,78.1,50.4,29.68,North,0,8.8,8.8,38,0.00,,---,0.00,VWS V14.00,2013-06-07 17:37:00,
2013-06-07 12:43:00,78.3,49.1,29.68,NW,315,5.2,9.0,36,0.00,,---,0.00,VWS V14.00,2013-06-07 17:43:00,
2013-06-07 12:48:00,78.1,49.7,29.68,North,0,10.0,10.0,37,0.00,,---,0.00,VWS V14.00,2013-06-07 17:48:00,
2013-06-07 12:54:00,78.3,49.9,29.68,NNW,338,5.5,8.7,37,0.00,,---,0.00,VWS V14.00,2013-06-07 17:54:00,
2013-06-07 12:59:00,78.6,50.9,29.68,NNW,338,4.9,6.5,38,0.00,,---,0.00,VWS V14.00,2013-06-07 17:59:00,
2013-06-07 13:05:00,78.1,49.7,29.68,NNW,338,6.9,6.9,37,0.00,,---,0.00,VWS V14.00,2013-06-07 18:05:00,
2013-06-07 13:11:00,79.2,50.7,29.68,North,0,8.8,11.0,37,0.00,,---,0.00,VWS V14.00,2013-06-07 18:11:00,
2013-06-07 13:16:00,79.0,49.0,29.68,North,0,10.2,10.2,35,0.00,,---,0.00,VWS V14.00,2013-06-07 18:16:00,
2013-06-07 13:22:00,78.8,49.6,29.68,NNE,22,11.9,11.9,36,0.00,,---,0.00,VWS V14.00,2013-06-07 18:22:00,
2013-06-07 13:27:00,79.0,49.0,29.68,North,0,8.8,8.8,35,0.00,,---,0.00,VWS V14.00,2013-06-07 18:27:00,
2013-06-07 13:34:00,79.3,48.6,29.65,North,0,7.2,7.2,34,0.00,,---,0.00,VWS V14.00,2013-06-07 18:34:00,
2013-06-07 13:39:00,79.7,48.1,29.65,North,0,9.1,9.1,33,0.00,,---,0.00,VWS V14.00,2013-06-07 18:39:00,
2013-06-07 13:44:00,79.2,47.6,29.65,NNW,338,8.6,8.6,33,0.00,,---,0.00,VWS V14.00,2013-06-07 18:44:00,
2013-06-07 13:51:00,78.4,47.8,29.68,NNW,338,8.6,8.6,34,0.00,,---,0.00,VWS V14.00,2013-06-07 18:51:00,
2013-06-07 13:56:00,79.3,48.6,29.68,WNW,292,3.8,4.9,34,0.00,,---,0.00,VWS V14.00,2013-06-07 18:56:00,
2013-06-07 14:01:00,79.7,48.1,29.68,NNE,22,8.0,8.0,33,0.00,,---,0.00,VWS V14.00,2013-06-07 19:01:00,
2013-06-07 14:07:00,80.2,49.3,29.68,North,0,6.9,6.9,34,0.00,,---,0.00,VWS V14.00,2013-06-07 19:07:00,
2013-06-07 14:12:00,80.4,49.5,29.68,NW,315,4.9,6.5,34,0.00,,---,0.00,VWS V14.00,2013-06-07 19:12:00,
2013-06-07 14:17:00,80.8,48.2,29.65,NW,315,6.0,6.0,32,0.00,,---,0.00,VWS V14.00,2013-06-07 19:17:00,
2013-06-07 14:23:00,80.8,47.4,29.65,North,0,4.9,7.8,31,0.00,,---,0.00,VWS V14.00,2013-06-07 19:23:00,
2013-06-07 14:28:00,80.8,46.5,29.65,NNE,22,11.9,11.9,30,0.00,,---,0.00,VWS V14.00,2013-06-07 19:28:00,
2013-06-07 14:33:00,80.4,46.2,29.65,WNW,292,10.8,10.8,30,0.00,,---,0.00,VWS V14.00,2013-06-07 19:33:00,
2013-06-07 14:39:00,80.2,46.0,29.65,NNW,338,10.5,10.5,30,0.00,,---,0.00,VWS V14.00,2013-06-07 19:39:00,
2013-06-07 14:45:00,80.2,46.0,29.65,North,0,9.1,9.1,30,0.00,,---,0.00,VWS V14.00,2013-06-07 19:45:00,
2013-06-07 14:51:00,80.4,46.2,29.65,North,0,10.8,10.8,30,0.00,,---,0.00,VWS V14.00,2013-06-07 19:51:00,
2013-06-07 14:56:00,79.9,45.7,29.65,North,0,4.6,6.5,30,0.00,,---,0.00,VWS V14.00,2013-06-07 19:56:00,
2013-06-07 15:01:00,80.1,45.9,29.65,North,0,5.8,7.6,30,0.00,,---,0.00,VWS V14.00,2013-06-07 20:01:00,
2013-06-07 15:07:00,80.2,46.0,29.65,North,0,9.1,9.1,30,0.00,,---,0.00,VWS V14.00,2013-06-07 20:07:00,
2013-06-07 15:13:00,79.9,45.7,29.65,NE,45,10.5,10.5,30,0.00,,---,0.00,VWS V14.00,2013-06-07 20:13:00,
2013-06-07 15:19:00,79.9,46.6,29.65,North,0,5.5,7.6,31,0.00,,---,0.00,VWS V14.00,2013-06-07 20:19:00,
2013-06-07 15:24:00,79.7,45.6,29.65,West,270,4.1,6.0,30,0.00,,---,0.00,VWS V14.00,2013-06-07 20:24:00,
2013-06-07 15:30:00,79.7,45.6,29.65,NNW,338,7.7,7.7,30,0.00,,---,0.00,VWS V14.00,2013-06-07 20:30:00,
2013-06-07 15:35:00,80.1,45.9,29.65,NNE,22,4.4,7.8,30,0.00,,---,0.00,VWS V14.00,2013-06-07 20:35:00,
2013-06-07 15:41:00,80.4,47.0,29.65,NW,315,8.6,8.6,31,0.00,,---,0.00,VWS V14.00,2013-06-07 20:41:00,
2013-06-07 15:47:00,80.2,46.0,29.65,WNW,292,8.0,8.7,30,0.00,,---,0.00,VWS V14.00,2013-06-07 20:47:00,
2013-06-07 15:52:00,79.0,44.9,29.65,NNW,338,10.5,10.5,30,0.00,,---,0.00,VWS V14.00,2013-06-07 20:52:00,
2013-06-07 15:57:00,78.8,45.6,29.65,NNW,338,7.7,7.7,31,0.00,,---,0.00,VWS V14.00,2013-06-07 20:57:00,
2013-06-07 16:03:00,79.3,46.1,29.65,NW,315,5.8,6.0,31,0.00,,---,0.00,VWS V14.00,2013-06-07 21:03:00,
2013-06-07 16:08:00,79.5,45.4,29.65,WNW,292,10.5,10.5,30,0.00,,---,0.00,VWS V14.00,2013-06-07 21:08:00,
2013-06-07 16:14:00,79.7,45.6,29.65,NW,315,8.6,8.6,30,0.00,,---,0.00,VWS V14.00,2013-06-07 21:14:00,
2013-06-07 16:19:00,79.3,45.2,29.65,NNW,338,8.3,9.2,30,0.00,,---,0.00,VWS V14.00,2013-06-07 21:19:00,
2013-06-07 16:25:00,79.3,45.2,29.65,NNW,338,9.1,9.1,30,0.00,,---,0.00,VWS V14.00,2013-06-07 21:25:00,
2013-06-07 16:30:00,79.5,45.4,29.65,North,0,11.1,11.1,30,0.00,,---,0.00,VWS V14.00,2013-06-07 21:30:00,
2013-06-07 16:35:00,79.3,45.2,29.65,North,0,5.5,5.5,30,0.00,,---,0.00,VWS V14.00,2013-06-07 21:35:00,
2013-06-07 16:41:00,79.3,46.1,29.65,NNW,338,5.2,5.2,31,0.00,,---,0.00,VWS V14.00,2013-06-07 21:41:00,
2013-06-07 16:47:00,79.3,45.2,29.65,North,0,10.8,10.8,30,0.00,,---,0.00,VWS V14.00,2013-06-07 21:47:00,
2013-06-07 16:52:00,79.3,45.2,29.65,North,0,7.2,7.2,30,0.00,,---,0.00,VWS V14.00,2013-06-07 21:52:00,
2013-06-07 16:59:00,79.5,45.4,29.65,North,0,8.8,8.8,30,0.00,,---,0.00,VWS V14.00,2013-06-07 21:59:00,
2013-06-07 17:04:00,79.7,45.6,29.65,NW,315,7.7,7.7,30,0.00,,---,0.00,VWS V14.00,2013-06-07 22:04:00,
2013-06-07 17:10:00,79.5,45.4,29.65,NNE,22,6.9,6.9,30,0.00,,---,0.00,VWS V14.00,2013-06-07 22:10:00,
2013-06-07 17:17:00,79.7,46.4,29.65,North,0,7.7,7.7,31,0.00,,---,0.00,VWS V14.00,2013-06-07 22:17:00,
2013-06-07 17:24:00,79.7,45.6,29.65,North,0,8.0,8.0,30,0.00,,---,0.00,VWS V14.00,2013-06-07 22:24:00,
2013-06-07 17:30:00,79.7,45.6,29.65,North,0,4.9,4.9,30,0.00,,---,0.00,VWS V14.00,2013-06-07 22:30:00,
2013-06-07 17:36:00,79.7,45.6,29.65,North,0,7.2,7.2,30,0.00,,---,0.00,VWS V14.00,2013-06-07 22:36:00,
2013-06-07 17:42:00,79.2,45.1,29.65,North,0,9.1,9.1,30,0.00,,---,0.00,VWS V14.00,2013-06-07 22:42:00,
2013-06-07 17:47:00,79.2,45.1,29.65,North,0,4.6,4.6,30,0.00,,---,0.00,VWS V14.00,2013-06-07 22:47:00,
2013-06-07 17:53:00,79.2,44.2,29.65,North,0,8.0,8.0,29,0.00,,---,0.00,VWS V14.00,2013-06-07 22:53:00,
2013-06-07 17:58:00,79.2,45.1,29.65,NW,315,6.9,6.9,30,0.00,,---,0.00,VWS V14.00,2013-06-07 22:58:00,
2013-06-07 18:03:00,79.2,45.1,29.65,North,0,8.3,8.3,30,0.00,,---,0.00,VWS V14.00,2013-06-07 23:03:00,
2013-06-07 18:09:00,79.2,45.1,29.65,North,0,11.9,11.9,30,0.00,,---,0.00,VWS V14.00,2013-06-07 23:09:00,
2013-06-07 18:15:00,78.8,44.8,29.65,NNW,338,5.8,5.8,30,0.00,,---,0.00,VWS V14.00,2013-06-07 23:15:00,
2013-06-07 18:20:00,78.4,45.3,29.65,NNW,338,6.3,6.3,31,0.00,,---,0.00,VWS V14.00,2013-06-07 23:20:00,
2013-06-07 18:25:00,77.4,44.4,29.65,North,0,5.2,5.4,31,0.00,,---,0.00,VWS V14.00,2013-06-07 23:25:00,
2013-06-07 18:30:00,77.0,44.1,29.65,NNW,338,7.7,7.7,31,0.00,,---,0.00,VWS V14.00,2013-06-07 23:30:00,
2013-06-07 18:36:00,76.6,44.6,29.65,NNW,338,5.8,5.8,32,0.00,,---,0.00,VWS V14.00,2013-06-07 23:36:00,
2013-06-07 18:41:00,76.8,44.8,29.65,North,0,4.6,4.6,32,0.00,,---,0.00,VWS V14.00,2013-06-07 23:41:00,
2013-06-07 18:47:00,77.4,45.2,29.65,NE,45,4.9,5.8,32,0.00,,---,0.00,VWS V14.00,2013-06-07 23:47:00,
2013-06-07 18:52:00,77.7,45.5,29.65,NNW,338,4.6,5.4,32,0.00,,---,0.00,VWS V14.00,2013-06-07 23:52:00,
2013-06-07 18:57:00,77.9,45.7,29.65,NNW,338,4.6,4.6,32,0.00,,---,0.00,VWS V14.00,2013-06-07 23:57:00,
2013-06-07 19:03:00,78.1,45.8,29.65,NNW,338,4.4,4.4,32,0.00,,---,0.00,VWS V14.00,2013-06-08 00:03:00,
2013-06-07 19:10:00,78.6,47.1,29.65,North,0,4.6,4.6,33,0.00,,---,0.00,VWS V14.00,2013-06-08 00:10:00,
2013-06-07 19:15:00,79.2,46.8,29.65,North,0,4.6,4.6,32,0.00,,---,0.00,VWS V14.00,2013-06-08 00:15:00,
2013-06-07 19:21:00,79.3,46.1,29.65,NNW,338,5.2,5.2,31,0.00,,---,0.00,VWS V14.00,2013-06-08 00:21:00,
2013-06-07 19:26:00,79.9,47.4,29.65,NW,315,3.8,3.8,32,0.00,,---,0.00,VWS V14.00,2013-06-08 00:26:00,
2013-06-07 19:31:00,80.4,47.0,29.65,North,0,5.2,5.2,31,0.00,,---,0.00,VWS V14.00,2013-06-08 00:31:00,
2013-06-07 19:37:00,80.4,47.0,29.65,North,0,5.2,5.2,31,0.00,,---,0.00,VWS V14.00,2013-06-08 00:37:00,
2013-06-07 19:42:00,79.7,46.4,29.65,NNW,338,2.7,2.7,31,0.00,,---,0.00,VWS V14.00,2013-06-08 00:42:00,
2013-06-07 19:47:00,78.3,46.0,29.68,North,0,4.1,4.1,32,0.00,,---,0.00,VWS V14.00,2013-06-08 00:47:00,
2013-06-07 19:52:00,77.2,45.1,29.68,North,0,3.5,3.5,32,0.00,,---,0.00,VWS V14.00,2013-06-08 00:52:00,
2013-06-07 19:58:00,76.3,45.1,29.68,NW,315,1.0,2.9,33,0.00,,---,0.00,VWS V14.00,2013-06-08 00:58:00,
2013-06-07 20:05:00,75.4,45.1,29.68,NNW,338,2.1,2.5,34,0.00,,---,0.00,VWS V14.00,2013-06-08 01:05:00,
2013-06-07 20:10:00,74.7,45.2,29.68,NNW,338,1.0,1.3,35,0.00,,---,0.00,VWS V14.00,2013-06-08 01:10:00,
2013-06-07 20:16:00,74.1,45.5,29.68,NNW,338,1.0,1.1,36,0.00,,---,0.00,VWS V14.00,2013-06-08 01:16:00,
2013-06-07 20:23:00,73.6,45.7,29.68,WNW,292,3.5,3.5,37,0.00,,---,0.00,VWS V14.00,2013-06-08 01:23:00,
2013-06-07 20:28:00,72.9,46.5,29.68,NW,315,2.4,2.4,39,0.00,,---,0.00,VWS V14.00,2013-06-08 01:28:00,
2013-06-07 20:34:00,72.3,46.0,29.68,NW,315,1.0,0.0,39,0.00,,---,0.00,VWS V14.00,2013-06-08 01:34:00,
2013-06-07 20:41:00,71.8,45.5,29.68,NW,315,1.0,2.2,39,0.00,,---,0.00,VWS V14.00,2013-06-08 01:41:00,
2013-06-07 20:46:00,71.4,46.5,29.68,NW,315,2.7,2.7,41,0.00,,---,0.00,VWS V14.00,2013-06-08 01:46:00,
2013-06-07 20:51:00,71.2,45.7,29.68,NNW,338,3.0,3.0,40,0.00,,---,0.00,VWS V14.00,2013-06-08 01:51:00,
2013-06-07 20:57:00,70.9,46.7,29.68,NNW,338,2.7,2.7,42,0.00,,---,0.00,VWS V14.00,2013-06-08 01:57:00,
2013-06-07 21:03:00,70.3,46.8,29.68,NW,315,2.7,2.7,43,0.00,,---,0.00,VWS V14.00,2013-06-08 02:03:00,
2013-06-07 21:08:00,70.0,46.5,29.68,North,0,4.1,4.1,43,0.00,,---,0.00,VWS V14.00,2013-06-08 02:08:00,
2013-06-07 21:14:00,69.6,46.8,29.68,NW,315,3.0,3.0,44,0.00,,---,0.00,VWS V14.00,2013-06-08 02:14:00,
2013-06-07 21:19:00,69.3,47.0,29.68,NNW,338,4.1,4.1,45,0.00,,---,0.00,VWS V14.00,2013-06-08 02:19:00,
2013-06-07 21:25:00,69.1,47.5,29.68,NW,315,1.0,1.3,46,0.00,,---,0.00,VWS V14.00,2013-06-08 02:25:00,
2013-06-07 21:30:00,68.9,47.3,29.68,NW,315,2.4,2.4,46,0.00,,---,0.00,VWS V14.00,2013-06-08 02:30:00,
2013-06-07 21:36:00,68.7,47.7,29.68,WNW,292,2.7,2.7,47,0.00,,---,0.00,VWS V14.00,2013-06-08 02:36:00,
2013-06-07 21:42:00,68.7,47.1,29.68,NW,315,2.7,2.7,46,0.00,,---,0.00,VWS V14.00,2013-06-08 02:42:00,
2013-06-07 21:48:00,68.7,47.7,29.71,NW,315,2.1,2.2,47,0.00,,---,0.00,VWS V14.00,2013-06-08 02:48:00,
2013-06-07 21:53:00,68.7,47.7,29.71,North,0,2.4,2.4,47,0.00,,---,0.00,VWS V14.00,2013-06-08 02:53:00,
2013-06-07 21:59:00,68.5,47.5,29.71,North,0,4.4,4.4,47,0.00,,---,0.00,VWS V14.00,2013-06-08 02:59:00,
2013-06-07 22:04:00,68.4,47.9,29.71,NNW,338,4.1,4.1,48,0.00,,---,0.00,VWS V14.00,2013-06-08 03:04:00,
2013-06-07 22:09:00,67.8,49.0,29.71,NW,315,2.7,2.7,51,0.00,,---,0.00,VWS V14.00,2013-06-08 03:09:00,
2013-06-07 22:14:00,67.5,48.7,29.71,NW,315,2.1,2.1,51,0.00,,---,0.00,VWS V14.00,2013-06-08 03:14:00,
2013-06-07 22:20:00,67.3,49.1,29.71,NW,315,1.0,0.0,52,0.00,,---,0.00,VWS V14.00,2013-06-08 03:20:00,
2013-06-07 22:26:00,67.1,48.9,29.71,NW,315,3.0,3.0,52,0.00,,---,0.00,VWS V14.00,2013-06-08 03:26:00,
2013-06-07 22:31:00,66.9,49.2,29.71,NW,315,2.4,2.4,53,0.00,,---,0.00,VWS V14.00,2013-06-08 03:31:00,
2013-06-07 22:36:00,66.6,49.4,29.71,NW,315,2.4,2.4,54,0.00,,---,0.00,VWS V14.00,2013-06-08 03:36:00,
2013-06-07 22:42:00,66.4,49.2,29.71,North,0,2.4,2.4,54,0.00,,---,0.00,VWS V14.00,2013-06-08 03:42:00,
2013-06-07 22:48:00,66.0,49.4,29.71,North,0,2.4,2.4,55,0.00,,---,0.00,VWS V14.00,2013-06-08 03:48:00,
2013-06-07 22:54:00,65.8,49.7,29.71,NNW,338,3.5,3.5,56,0.00,,---,0.00,VWS V14.00,2013-06-08 03:54:00,
2013-06-07 23:00:00,65.7,49.6,29.71,NNW,338,1.0,2.5,56,0.00,,---,0.00,VWS V14.00,2013-06-08 04:00:00,
2013-06-07 23:01:00,65.5,49.9,29.71,NNW,338,3.5,3.5,57,0.00,,---,0.00,VWS V14.00,2013-06-08 04:01:00,
2013-06-07 23:03:00,65.5,49.9,29.71,NNW,338,1.0,2.0,57,0.00,,---,0.00,VWS V14.00,2013-06-08 04:03:00,
2013-06-07 23:04:00,65.5,49.9,29.71,NNW,338,2.4,2.4,57,0.00,,---,0.00,VWS V14.00,2013-06-08 04:04:00,
2013-06-07 23:05:00,65.5,49.9,29.71,NNW,338,3.5,3.5,57,0.00,,---,0.00,VWS V14.00,2013-06-08 04:05:00,
2013-06-07 23:08:00,65.5,49.9,29.71,NNW,338,2.7,2.7,57,0.00,,---,0.00,VWS V14.00,2013-06-08 04:08:00,
2013-06-07 23:13:00,65.1,50.5,29.71,NNW,338,2.1,2.1,59,0.00,,---,0.00,VWS V14.00,2013-06-08 04:13:00,
2013-06-07 23:18:00,64.9,50.3,29.68,NNW,338,2.4,2.4,59,0.00,,---,0.00,VWS V14.00,2013-06-08 04:18:00,
2013-06-07 23:24:00,64.8,50.1,29.68,NNW,338,3.5,3.5,59,0.00,,---,0.00,VWS V14.00,2013-06-08 04:24:00,
2013-06-07 23:29:00,64.8,50.1,29.68,NNW,338,2.4,2.4,59,0.00,,---,0.00,VWS V14.00,2013-06-08 04:29:00,
2013-06-07 23:35:00,64.6,50.4,29.71,NNW,338,2.7,2.7,60,0.00,,---,0.00,VWS V14.00,2013-06-08 04:35:00,
2013-06-07 23:40:00,64.6,50.8,29.71,North,0,4.4,4.4,61,0.00,,---,0.00,VWS V14.00,2013-06-08 04:40:00,
2013-06-07 23:45:00,64.4,50.7,29.71,North,0,3.0,3.0,61,0.00,,---,0.00,VWS V14.00,2013-06-08 04:45:00,
2013-06-07 23:51:00,64.0,51.2,29.68,NNW,338,3.8,3.8,63,0.00,,---,0.00,VWS V14.00,2013-06-08 04:51:00,
2013-06-07 23:56:00,63.9,51.0,29.68,NNW,338,1.0,1.1,63,0.00,,---,0.00,VWS V14.00,2013-06-08 04:56:00,